createdAt,value
2019-05-01T00:00:27.028Z,22.57
2019-05-01T00:03:14.983Z,22.30
2019-05-01T00:05:46.325Z,22.83
2019-05-01T00:08:15.427Z,22.13
2019-05-01T00:10:44.459Z,22.33
2019-05-01T00:13:13.482Z,21.77
2019-05-01T00:15:42.939Z,23.43
2019-05-01T00:18:11.967Z,23.50
2019-05-01T00:20:40.970Z,24.80
2019-05-01T00:23:09.895Z,24.20
2019-05-01T00:25:39.217Z,24.20
2019-05-01T00:28:08.394Z,23.70
2019-05-01T00:30:37.454Z,23.10
2019-05-01T00:33:06.804Z,24.73
2019-05-01T00:35:35.705Z,23.80
2019-05-01T00:38:04.621Z,24.80
2019-05-01T00:40:33.493Z,24.03
2019-05-01T00:43:02.485Z,24.67
2019-05-01T00:45:31.469Z,23.43
2019-05-01T00:48:00.783Z,25.37
2019-05-01T00:50:29.599Z,25.20
2019-05-01T00:52:58.505Z,25.30
2019-05-01T00:55:53.782Z,25.00
2019-05-01T00:58:40.119Z,24.93
2019-05-01T01:01:28.015Z,24.13
2019-05-01T01:03:57.140Z,25.37
2019-05-01T01:06:26.402Z,26.00
2019-05-01T01:08:55.395Z,26.50
2019-05-01T01:11:24.430Z,25.10
2019-05-01T01:13:53.481Z,25.40
2019-05-01T01:16:22.689Z,26.07
2019-05-01T01:18:51.676Z,26.77
2019-05-01T01:21:20.655Z,26.20
2019-05-01T01:23:50.162Z,26.50
2019-05-01T01:26:19.175Z,26.43
2019-05-01T01:28:48.573Z,26.07
2019-05-01T01:31:17.606Z,27.30
2019-05-01T01:33:46.553Z,26.03
2019-05-01T01:36:15.574Z,28.17
2019-05-01T01:38:44.548Z,26.40
2019-05-01T01:41:13.613Z,27.53
2019-05-01T01:43:59.018Z,27.27
2019-05-01T01:46:29.686Z,27.57
2019-05-01T01:48:58.971Z,28.83
2019-05-01T01:51:28.284Z,27.50
2019-05-01T01:53:58.590Z,27.67
2019-05-01T01:56:27.955Z,26.03
2019-05-01T01:58:57.826Z,28.37
2019-05-01T02:01:35.722Z,28.20
2019-05-01T02:04:10.734Z,29.23
2019-05-01T02:06:39.868Z,28.10
2019-05-01T02:09:09.791Z,27.67
2019-05-01T02:11:38.721Z,28.23
2019-05-01T02:14:07.679Z,27.70
2019-05-01T02:16:36.908Z,27.63
2019-05-01T02:19:06.022Z,26.70
2019-05-01T02:21:35.020Z,27.67
2019-05-01T02:24:04.091Z,26.70
2019-05-01T02:26:37.518Z,29.57
2019-05-01T02:29:17.363Z,27.87
2019-05-01T02:31:48.942Z,28.60
2019-05-01T02:34:19.067Z,28.70
2019-05-01T02:36:49.321Z,29.77
2019-05-01T02:39:21.136Z,28.63
2019-05-01T02:41:52.765Z,27.53
2019-05-01T02:44:31.293Z,29.00
2019-05-01T02:47:03.373Z,28.17
2019-05-01T02:49:36.981Z,28.47
2019-05-01T02:52:07.678Z,29.93
2019-05-01T02:54:38.567Z,27.23
2019-05-01T02:57:12.873Z,28.33
2019-05-01T02:59:45.806Z,28.13
2019-05-01T03:02:15.358Z,27.43
2019-05-01T03:04:46.048Z,29.43
2019-05-01T03:07:15.850Z,28.63
2019-05-01T03:09:45.012Z,27.43
2019-05-01T03:12:17.729Z,27.80
2019-05-01T03:14:49.429Z,27.47
2019-05-01T03:17:45.060Z,28.70
2019-05-01T03:20:32.019Z,27.43
2019-05-01T03:23:32.774Z,28.77
2019-05-01T03:26:02.150Z,27.80
2019-05-01T03:31:09.237Z,28.70
2019-05-01T03:33:38.742Z,29.40
2019-05-01T03:36:07.876Z,28.73
2019-05-01T03:38:37.617Z,28.33
2019-05-01T03:41:06.691Z,29.10
2019-05-01T03:43:36.213Z,29.60
2019-05-01T03:46:05.277Z,28.53
2019-05-01T03:48:34.629Z,28.73
2019-05-01T03:51:03.645Z,29.50
2019-05-01T03:53:32.833Z,29.53
2019-05-01T03:56:01.847Z,27.77
2019-05-01T03:58:31.469Z,28.83
2019-05-01T04:01:17.193Z,31.00
2019-05-01T04:03:49.978Z,28.97
2019-05-01T04:06:19.379Z,29.17
2019-05-01T04:08:48.929Z,28.20
2019-05-01T04:11:18.028Z,28.57
2019-05-01T04:13:47.519Z,30.73
2019-05-01T04:16:17.809Z,28.10
2019-05-01T04:18:47.684Z,28.93
2019-05-01T04:21:17.183Z,28.53
2019-05-01T04:23:46.239Z,29.77
2019-05-01T04:26:15.773Z,29.80
2019-05-01T04:28:53.487Z,28.87
2019-05-01T04:31:41.931Z,29.50
2019-05-01T04:34:19.206Z,27.80
2019-05-01T04:36:51.884Z,29.77
2019-05-01T04:39:21.036Z,31.37
2019-05-01T04:41:50.222Z,31.00
2019-05-01T04:44:20.209Z,35.17
2019-05-01T04:46:53.643Z,33.00
2019-05-01T04:49:23.238Z,34.83
2019-05-01T04:51:52.582Z,36.13
2019-05-01T04:54:24.751Z,37.97
2019-05-01T04:56:58.181Z,38.63
2019-05-01T04:59:27.299Z,38.40
2019-05-01T05:01:59.014Z,39.43
2019-05-01T05:04:29.247Z,37.80
2019-05-01T05:06:58.845Z,37.30
2019-05-01T05:09:56.596Z,37.70
2019-05-01T05:12:35.068Z,38.97
2019-05-01T05:15:15.806Z,38.83
2019-05-01T05:17:45.315Z,39.87
2019-05-01T05:20:14.698Z,40.43
2019-05-01T05:22:43.974Z,40.70
2019-05-01T05:25:13.009Z,40.73
2019-05-01T05:27:42.417Z,40.37
2019-05-01T05:30:11.467Z,40.53
2019-05-01T05:32:43.344Z,42.03
2019-05-01T05:35:14.015Z,43.07
2019-05-01T05:38:04.051Z,40.10
2019-05-01T05:40:34.708Z,40.00
2019-05-01T05:43:03.882Z,41.33
2019-05-01T05:45:33.402Z,42.83
2019-05-01T05:48:02.541Z,42.93
2019-05-01T05:50:36.852Z,42.33
2019-05-01T05:53:08.887Z,43.50
2019-05-01T05:55:44.930Z,42.77
2019-05-01T05:58:20.726Z,42.93
2019-05-01T06:01:08.576Z,43.20
2019-05-01T06:04:16.735Z,44.90
2019-05-01T06:07:13.673Z,43.23
2019-05-01T06:10:03.779Z,44.47
2019-05-01T06:12:45.062Z,43.63
2019-05-01T06:15:31.160Z,45.63
2019-05-01T06:18:06.011Z,44.00
2019-05-01T06:20:45.737Z,44.47
2019-05-01T06:23:34.410Z,43.93
2019-05-01T06:26:43.395Z,43.83
2019-05-01T06:29:12.779Z,43.80
2019-05-01T06:31:42.034Z,44.00
2019-05-01T06:34:11.075Z,43.53
2019-05-01T06:36:44.157Z,43.27
2019-05-01T06:39:12.027Z,43.30
2019-05-01T06:41:44.489Z,43.73
2019-05-01T06:44:20.360Z,43.33
2019-05-01T06:47:24.665Z,44.03
2019-05-01T06:50:10.212Z,42.47
2019-05-01T06:52:39.963Z,42.20
2019-05-01T06:55:09.091Z,41.50
2019-05-01T06:57:43.872Z,41.30
2019-05-01T07:00:15.581Z,41.13
2019-05-01T07:02:48.105Z,41.53
2019-05-01T07:05:17.965Z,40.10
2019-05-01T07:07:48.158Z,41.27
2019-05-01T07:10:29.910Z,41.00
2019-05-01T07:12:49.018Z,43.00
2019-05-01T07:15:21.812Z,41.57
2019-05-01T07:17:49.290Z,41.60
2019-05-01T07:20:25.602Z,41.43
2019-05-01T07:22:55.714Z,40.73
2019-05-01T07:25:24.760Z,41.83
2019-05-01T07:27:58.077Z,41.97
2019-05-01T07:30:50.019Z,42.83
2019-05-01T07:33:17.937Z,38.80
2019-05-01T07:35:47.977Z,39.43
2019-05-01T07:38:17.106Z,41.27
2019-05-01T07:40:46.384Z,40.90
2019-05-01T07:43:24.102Z,40.70
2019-05-01T07:46:26.709Z,38.93
2019-05-01T07:48:55.955Z,39.07
2019-05-01T07:51:25.216Z,38.23
2019-05-01T07:53:54.427Z,40.43
2019-05-01T07:56:28.131Z,38.00
2019-05-01T07:58:54.673Z,37.40
2019-05-01T08:01:54.407Z,39.33
2019-05-01T08:04:35.875Z,37.33
2019-05-01T08:06:57.013Z,37.60
2019-05-01T08:09:24.161Z,38.37
2019-05-01T08:11:53.367Z,38.90
2019-05-01T08:14:22.590Z,41.63
2019-05-01T08:16:51.712Z,36.77
2019-05-01T08:19:39.459Z,36.43
2019-05-01T08:22:11.055Z,39.30
2019-05-01T08:24:40.148Z,37.50
2019-05-01T08:27:19.866Z,36.27
2019-05-01T08:30:05.417Z,37.20
2019-05-01T08:32:40.945Z,35.70
2019-05-01T08:35:12.087Z,37.23
2019-05-01T08:37:41.105Z,36.70
2019-05-01T08:40:10.108Z,33.87
2019-05-01T08:42:42.798Z,35.13
2019-05-01T08:45:35.741Z,33.97
2019-05-01T08:48:21.863Z,37.30
2019-05-01T08:50:54.522Z,36.03
2019-05-01T08:53:23.170Z,36.90
2019-05-01T08:55:52.694Z,36.70
2019-05-01T08:58:21.623Z,36.33
2019-05-01T09:00:50.522Z,35.23
2019-05-01T09:03:20.455Z,36.93
2019-05-01T09:05:52.147Z,36.43
2019-05-01T09:08:20.435Z,35.20
2019-05-01T09:10:49.931Z,37.47
2019-05-01T09:13:23.698Z,36.63
2019-05-01T09:15:50.931Z,37.30
2019-05-01T09:18:19.913Z,37.80
2019-05-01T09:20:50.765Z,36.80
2019-05-01T09:23:20.329Z,36.07
2019-05-01T09:26:14.601Z,36.97
2019-05-01T09:29:04.685Z,37.50
2019-05-01T09:31:35.601Z,37.10
2019-05-01T09:34:05.728Z,35.97
2019-05-01T09:36:34.716Z,36.50
2019-05-01T09:39:05.717Z,37.87
2019-05-01T09:41:38.371Z,37.33
2019-05-01T09:44:10.038Z,37.53
2019-05-01T09:46:37.025Z,40.97
2019-05-01T09:49:06.451Z,44.43
2019-05-01T09:51:54.580Z,39.30
2019-05-01T09:54:51.698Z,40.10
2019-05-01T09:57:20.799Z,39.73
2019-05-01T09:59:49.738Z,40.67
2019-05-01T10:02:18.734Z,39.70
2019-05-01T10:04:47.601Z,40.73
2019-05-01T10:07:16.616Z,39.37
2019-05-01T10:09:47.407Z,39.80
2019-05-01T10:12:16.030Z,40.50
2019-05-01T10:14:45.071Z,39.97
2019-05-01T10:17:14.073Z,41.53
2019-05-01T10:19:42.936Z,42.87
2019-05-01T10:22:11.954Z,43.30
2019-05-01T10:24:40.971Z,41.53
2019-05-01T10:27:12.331Z,42.93
2019-05-01T10:30:02.818Z,42.40
2019-05-01T10:32:39.492Z,43.20
2019-05-01T10:35:22.744Z,42.07
2019-05-01T10:37:51.561Z,42.10
2019-05-01T10:40:22.323Z,40.80
2019-05-01T10:42:51.185Z,42.17
2019-05-01T10:45:20.535Z,42.80
2019-05-01T10:47:49.484Z,42.67
2019-05-01T10:50:18.313Z,44.47
2019-05-01T10:52:47.448Z,45.47
2019-05-01T10:55:16.722Z,45.77
2019-05-01T10:57:45.677Z,46.47
2019-05-01T11:00:15.800Z,46.10
2019-05-01T11:02:44.727Z,44.83
2019-05-01T11:05:13.800Z,45.77
2019-05-01T11:07:43.012Z,44.87
2019-05-01T11:10:12.345Z,43.27
2019-05-01T11:12:41.627Z,46.77
2019-05-01T11:15:11.059Z,43.43
2019-05-01T11:17:39.985Z,45.47
2019-05-01T11:20:09.162Z,43.63
2019-05-01T11:22:38.405Z,43.17
2019-05-01T11:25:07.765Z,44.10
2019-05-01T11:27:36.957Z,43.43
2019-05-01T11:30:06.972Z,44.13
2019-05-01T11:32:53.903Z,44.03
2019-05-01T11:35:48.306Z,45.30
2019-05-01T11:38:38.939Z,43.87
2019-05-01T11:41:12.521Z,43.17
2019-05-01T11:43:41.435Z,41.93
2019-05-01T11:46:10.511Z,41.57
2019-05-01T11:48:39.443Z,41.77
2019-05-01T11:51:08.368Z,44.10
2019-05-01T11:53:37.299Z,41.70
2019-05-01T11:56:06.792Z,42.13
2019-05-01T11:58:36.243Z,42.97
2019-05-01T12:01:06.292Z,41.83
2019-05-01T12:03:35.254Z,44.67
2019-05-01T12:06:04.308Z,45.10
2019-05-01T12:08:33.817Z,42.67
2019-05-01T12:11:03.904Z,42.07
2019-05-01T12:13:43.175Z,42.13
2019-05-01T12:16:22.605Z,42.20
2019-05-01T12:18:51.913Z,42.77
2019-05-01T12:21:20.966Z,41.23
2019-05-01T12:23:50.081Z,42.87
2019-05-01T12:26:19.105Z,44.73
2019-05-01T12:28:48.000Z,44.97
2019-05-01T12:31:16.963Z,46.40
2019-05-01T12:33:45.984Z,46.40
2019-05-01T12:36:14.916Z,44.53
2019-05-01T12:38:46.030Z,45.50
2019-05-01T12:41:38.483Z,47.03
2019-05-01T12:44:07.549Z,44.67
2019-05-01T12:46:43.096Z,45.07
2019-05-01T12:49:12.273Z,46.10
2019-05-01T12:51:43.118Z,43.23
2019-05-01T12:54:18.704Z,44.97
2019-05-01T12:56:52.122Z,45.60
2019-05-01T12:59:21.065Z,44.97
2019-05-01T13:01:50.373Z,45.00
2019-05-01T13:04:19.315Z,43.83
2019-05-01T13:06:50.352Z,46.43
2019-05-01T13:09:19.214Z,44.83
2019-05-01T13:11:48.498Z,45.60
2019-05-01T13:14:17.359Z,45.07
2019-05-01T13:16:46.252Z,43.57
2019-05-01T13:19:15.370Z,45.70
2019-05-01T13:21:44.354Z,46.13
2019-05-01T13:24:13.258Z,45.07
2019-05-01T13:26:47.521Z,45.20
2019-05-01T13:29:40.395Z,42.63
2019-05-01T13:32:37.303Z,42.47
2019-05-01T13:35:06.554Z,44.50
2019-05-01T13:37:35.550Z,42.67
2019-05-01T13:40:05.866Z,44.73
2019-05-01T13:42:34.889Z,43.07
2019-05-01T13:45:04.849Z,43.10
2019-05-01T13:47:33.863Z,41.80
2019-05-01T13:50:03.177Z,41.93
2019-05-01T13:52:32.186Z,44.83
2019-05-01T13:55:01.318Z,43.90
2019-05-01T13:57:30.205Z,44.53
2019-05-01T13:59:59.171Z,43.20
2019-05-01T14:02:28.663Z,43.70
2019-05-01T14:04:57.944Z,44.83
2019-05-01T14:07:26.962Z,46.50
2019-05-01T14:09:55.833Z,44.97
2019-05-01T14:12:24.763Z,44.07
2019-05-01T14:14:53.682Z,43.83
2019-05-01T14:17:22.760Z,44.93
2019-05-01T14:20:29.367Z,42.73
2019-05-01T14:23:03.026Z,40.63
2019-05-01T14:25:51.281Z,40.37
2019-05-01T14:28:20.228Z,41.27
2019-05-01T14:30:49.113Z,42.57
2019-05-01T14:33:18.057Z,41.93
2019-05-01T14:35:47.160Z,42.10
2019-05-01T14:38:16.211Z,41.27
2019-05-01T14:40:45.288Z,40.47
2019-05-01T14:43:14.528Z,42.30
2019-05-01T14:45:43.509Z,40.40
2019-05-01T14:48:12.478Z,40.40
2019-05-01T14:50:41.590Z,39.90
2019-05-01T14:53:10.844Z,39.13
2019-05-01T14:55:39.892Z,38.53
2019-05-01T14:58:09.273Z,37.77
2019-05-01T15:00:38.379Z,39.17
2019-05-01T15:03:07.784Z,37.50
2019-05-01T15:05:36.633Z,35.97
2019-05-01T15:08:06.214Z,36.70
2019-05-01T15:10:35.284Z,36.80
2019-05-01T15:13:08.894Z,36.43
2019-05-01T15:16:02.635Z,36.23
2019-05-01T15:18:39.905Z,36.73
2019-05-01T15:21:09.471Z,36.83
2019-05-01T15:23:38.450Z,36.47
2019-05-01T15:26:07.601Z,35.63
2019-05-01T15:28:36.594Z,35.30
2019-05-01T15:31:05.721Z,33.33
2019-05-01T15:33:34.951Z,33.43
2019-05-01T15:36:03.978Z,35.67
2019-05-01T15:38:33.001Z,33.90
2019-05-01T15:41:11.204Z,35.30
2019-05-01T15:43:49.492Z,32.57
2019-05-01T15:46:18.545Z,33.93
2019-05-01T15:48:47.613Z,33.80
2019-05-01T15:51:16.524Z,34.10
2019-05-01T15:53:45.382Z,32.73
2019-05-01T15:56:14.391Z,33.00
2019-05-01T15:58:43.412Z,32.07
2019-05-01T16:01:12.886Z,31.93
2019-05-01T16:03:41.931Z,32.80
2019-05-01T16:06:10.914Z,31.87
2019-05-01T16:08:40.201Z,31.97
2019-05-01T16:11:20.648Z,31.20
2019-05-01T16:13:49.657Z,30.83
2019-05-01T16:16:18.517Z,31.20
2019-05-01T16:18:47.507Z,30.67
2019-05-01T16:21:16.541Z,31.30
2019-05-01T16:23:45.999Z,32.07
2019-05-01T16:26:14.924Z,32.10
2019-05-01T16:28:43.819Z,32.83
2019-05-01T16:31:12.895Z,31.23
2019-05-01T16:33:41.830Z,30.90
2019-05-01T16:36:10.843Z,30.83
2019-05-01T16:38:53.984Z,32.73
2019-05-01T16:41:23.074Z,31.60
2019-05-01T16:43:52.384Z,29.80
2019-05-01T16:46:21.290Z,30.97
2019-05-01T16:48:52.072Z,30.47
2019-05-01T16:51:21.191Z,30.90
2019-05-01T16:53:50.196Z,30.17
2019-05-01T16:56:19.500Z,29.57
2019-05-01T16:58:48.541Z,31.00
2019-05-01T17:01:39.714Z,31.57
2019-05-01T17:04:16.913Z,31.93
2019-05-01T17:06:57.111Z,30.97
2019-05-01T17:10:03.659Z,30.33
2019-05-01T17:12:38.797Z,30.87
2019-05-01T17:15:08.218Z,31.77
2019-05-01T17:17:37.709Z,31.33
2019-05-01T17:20:07.201Z,32.77
2019-05-01T17:22:36.292Z,32.70
2019-05-01T17:25:05.752Z,32.70
2019-05-01T17:27:34.770Z,32.03
2019-05-01T17:30:06.191Z,30.80
2019-05-01T17:32:35.274Z,33.13
2019-05-01T17:35:06.667Z,32.67
2019-05-01T17:37:35.746Z,30.30
2019-05-01T17:40:06.777Z,31.87
2019-05-01T17:42:37.688Z,33.03
2019-05-01T17:45:06.784Z,32.17
2019-05-01T17:47:41.561Z,33.07
2019-05-01T17:50:11.138Z,33.30
2019-05-01T17:52:40.156Z,32.43
2019-05-01T17:55:09.432Z,33.93
2019-05-01T17:57:38.748Z,32.37
2019-05-01T18:00:26.995Z,32.17
2019-05-01T18:03:02.945Z,32.80
2019-05-01T18:05:45.750Z,32.90
2019-05-01T18:08:15.390Z,32.57
2019-05-01T18:10:44.444Z,32.80
2019-05-01T18:13:13.373Z,32.83
2019-05-01T18:15:42.491Z,34.03
2019-05-01T18:18:15.166Z,31.63
2019-05-01T18:20:42.711Z,32.57
2019-05-01T18:23:29.691Z,32.60
2019-05-01T18:26:08.858Z,32.70
2019-05-01T18:28:43.141Z,33.13
2019-05-01T18:31:17.025Z,32.70
2019-05-01T18:33:46.357Z,34.17
2019-05-01T18:36:19.851Z,33.87
2019-05-01T18:38:53.797Z,33.10
2019-05-01T18:41:41.843Z,32.97
2019-05-01T18:44:11.426Z,34.87
2019-05-01T18:46:40.995Z,34.13
2019-05-01T18:49:09.989Z,54.90
2019-05-01T18:51:40.826Z,35.97
2019-05-01T18:54:10.149Z,34.83
2019-05-01T18:56:39.585Z,34.50
2019-05-01T18:59:08.649Z,33.53
2019-05-01T19:01:38.167Z,37.70
2019-05-01T19:04:07.318Z,37.27
2019-05-01T19:06:41.753Z,36.70
2019-05-01T19:09:15.193Z,34.13
2019-05-01T19:11:39.926Z,34.77
2019-05-01T19:14:10.031Z,35.60
2019-05-01T19:16:40.107Z,35.77
2019-05-01T19:19:10.427Z,34.27
2019-05-01T19:21:41.815Z,33.50
2019-05-01T19:24:10.790Z,33.47
2019-05-01T19:26:42.599Z,35.17
2019-05-01T19:29:10.651Z,36.57
2019-05-01T19:31:39.826Z,34.73
2019-05-01T19:34:09.156Z,35.43
2019-05-01T19:36:40.294Z,35.93
2019-05-01T19:39:11.646Z,34.33
2019-05-01T19:41:43.651Z,33.97
2019-05-01T19:44:13.979Z,35.17
2019-05-01T19:46:41.170Z,36.90
2019-05-01T19:49:09.999Z,37.67
2019-05-01T19:51:39.449Z,35.30
2019-05-01T19:54:08.668Z,37.30
2019-05-01T19:56:37.978Z,35.73
2019-05-01T19:59:07.014Z,35.47
2019-05-01T20:01:38.436Z,43.93
2019-05-01T20:04:08.564Z,35.07
2019-05-01T20:06:39.954Z,35.20
2019-05-01T20:09:09.998Z,35.40
2019-05-01T20:11:39.999Z,36.20
2019-05-01T20:14:09.014Z,35.63
2019-05-01T20:16:40.764Z,36.73
2019-05-01T20:19:09.681Z,37.10
2019-05-01T20:21:41.672Z,37.77
2019-05-01T20:24:10.627Z,37.87
2019-05-01T20:26:39.908Z,38.10
2019-05-01T20:29:09.187Z,35.93
2019-05-01T20:31:38.599Z,36.30
2019-05-01T20:34:12.069Z,37.00
2019-05-01T20:36:39.505Z,36.87
2019-05-01T20:39:08.889Z,36.47
2019-05-01T20:41:38.095Z,36.93
2019-05-01T20:44:07.174Z,36.33
2019-05-01T20:46:36.632Z,36.23
2019-05-01T20:49:06.635Z,35.83
2019-05-01T20:51:35.739Z,37.10
2019-05-01T20:54:05.472Z,35.27
2019-05-01T20:57:02.439Z,38.17
2019-05-01T20:59:35.199Z,36.83
2019-05-01T21:02:07.682Z,36.27
2019-05-01T21:04:52.248Z,34.63
2019-05-01T21:07:30.518Z,37.57
2019-05-01T21:10:00.538Z,39.23
2019-05-01T21:12:30.108Z,37.27
2019-05-01T21:14:58.974Z,40.33
2019-05-01T21:17:28.353Z,36.60
2019-05-01T21:19:57.252Z,38.47
2019-05-01T21:22:27.167Z,38.73
2019-05-01T21:24:59.616Z,35.00
2019-05-01T21:27:29.033Z,36.60
2019-05-01T21:35:15.740Z,37.53
2019-05-01T21:37:45.397Z,38.73
2019-05-01T21:40:14.695Z,37.47
2019-05-01T21:42:47.287Z,38.93
2019-05-01T21:45:15.359Z,41.03
2019-05-01T21:47:44.292Z,38.97
2019-05-01T21:50:13.361Z,39.87
2019-05-01T21:52:43.893Z,39.47
2019-05-01T21:55:13.199Z,40.10
2019-05-01T21:57:42.290Z,38.63
2019-05-01T22:00:15.525Z,38.90
2019-05-01T22:02:46.398Z,40.27
2019-05-01T22:05:15.820Z,37.23
2019-05-01T22:07:44.677Z,39.13
2019-05-01T22:10:14.548Z,39.97
2019-05-01T22:12:48.515Z,39.23
2019-05-01T22:15:22.735Z,39.30
2019-05-01T22:18:10.933Z,38.20
2019-05-01T22:20:44.495Z,39.73
2019-05-01T22:23:17.251Z,38.77
2019-05-01T22:25:49.952Z,40.90
2019-05-01T22:28:32.796Z,40.10
2019-05-01T22:31:21.808Z,39.17
2019-05-01T22:33:50.716Z,40.63
2019-05-01T22:36:19.694Z,39.73
2019-05-01T22:38:48.783Z,39.07
2019-05-01T22:41:17.741Z,40.27
2019-05-01T22:43:48.220Z,40.83
2019-05-01T22:46:25.635Z,40.00
2019-05-01T22:48:54.893Z,40.23
2019-05-01T22:51:24.037Z,39.57
2019-05-01T22:53:56.022Z,38.10
2019-05-01T22:56:25.509Z,40.37
2019-05-01T22:58:54.614Z,40.20
2019-05-01T23:01:24.839Z,41.67
2019-05-01T23:04:03.247Z,40.13
2019-05-01T23:06:32.616Z,39.57
2019-05-01T23:09:02.164Z,39.57
2019-05-01T23:11:33.562Z,41.73
2019-05-01T23:14:02.654Z,39.70
2019-05-01T23:16:36.778Z,41.17
2019-05-01T23:19:05.822Z,41.70
2019-05-01T23:21:36.906Z,41.10
2019-05-01T23:24:08.187Z,40.17
2019-05-01T23:26:38.171Z,42.17
2019-05-01T23:29:07.303Z,42.70
2019-05-01T23:31:36.221Z,39.50
2019-05-01T23:34:05.496Z,42.10
2019-05-01T23:36:34.446Z,39.90
2019-05-01T23:39:05.328Z,40.27
2019-05-01T23:41:45.375Z,40.87
2019-05-01T23:44:05.513Z,40.50
2019-05-01T23:46:35.113Z,41.97
2019-05-01T23:49:04.242Z,38.57
2019-05-01T23:51:33.964Z,41.23
2019-05-01T23:54:03.017Z,39.63
2019-05-01T23:56:35.003Z,39.53
2019-05-01T23:59:03.468Z,41.27
